sensor_id;sensor_type;location;lat;lon;timestamp;P1;durP1;ratioP1;P2;durP2;ratioP2
18140;SDS011;9196;49.194;12.526;2023-08-21T00:00:48;9.97;;;8.90;;
18140;SDS011;9196;49.194;12.526;2023-08-21T00:03:15;13.33;;;8.53;;
18140;SDS011;9196;49.194;12.526;2023-08-21T00:05:41;9.47;;;8.00;;
18140;SDS011;9196;49.194;12.526;2023-08-21T00:08:08;9.03;;;8.27;;
18140;SDS011;9196;49.194;12.526;2023-08-21T00:10:36;12.20;;;9.13;;
18140;SDS011;9196;49.194;12.526;2023-08-21T00:13:05;10.10;;;8.20;;
18140;SDS011;9196;49.194;12.526;2023-08-21T00:15:32;10.57;;;9.47;;
18140;SDS011;9196;49.194;12.526;2023-08-21T00:17:59;10.17;;;9.17;;
18140;SDS011;9196;49.194;12.526;2023-08-21T00:20:26;8.87;;;8.17;;
18140;SDS011;9196;49.194;12.526;2023-08-21T00:22:53;14.23;;;8.60;;
18140;SDS011;9196;49.194;12.526;2023-08-21T00:25:20;9.77;;;8.80;;
18140;SDS011;9196;49.194;12.526;2023-08-21T00:27:47;9.10;;;8.30;;
18140;SDS011;9196;49.194;12.526;2023-08-21T00:30:16;9.90;;;8.93;;
18140;SDS011;9196;49.194;12.526;2023-08-21T00:32:42;14.07;;;8.40;;
18140;SDS011;9196;49.194;12.526;2023-08-21T00:35:09;8.83;;;7.50;;
18140;SDS011;9196;49.194;12.526;2023-08-21T00:37:36;8.73;;;7.87;;
18140;SDS011;9196;49.194;12.526;2023-08-21T00:40:03;8.83;;;8.07;;
18140;SDS011;9196;49.194;12.526;2023-08-21T00:42:31;9.23;;;8.40;;
18140;SDS011;9196;49.194;12.526;2023-08-21T00:44:58;9.40;;;8.20;;
18140;SDS011;9196;49.194;12.526;2023-08-21T00:47:26;12.67;;;9.47;;
18140;SDS011;9196;49.194;12.526;2023-08-21T00:49:53;8.97;;;8.27;;
18140;SDS011;9196;49.194;12.526;2023-08-21T00:52:21;13.13;;;10.67;;
18140;SDS011;9196;49.194;12.526;2023-08-21T00:54:48;9.80;;;8.77;;
18140;SDS011;9196;49.194;12.526;2023-08-21T00:57:16;10.60;;;9.70;;
18140;SDS011;9196;49.194;12.526;2023-08-21T00:59:43;14.63;;;8.73;;
18140;SDS011;9196;49.194;12.526;2023-08-21T01:02:10;8.43;;;7.73;;
18140;SDS011;9196;49.194;12.526;2023-08-21T01:04:39;11.87;;;8.73;;
18140;SDS011;9196;49.194;12.526;2023-08-21T01:07:05;13.33;;;9.60;;
18140;SDS011;9196;49.194;12.526;2023-08-21T01:09:36;10.70;;;9.60;;
18140;SDS011;9196;49.194;12.526;2023-08-21T01:12:09;14.43;;;9.67;;
18140;SDS011;9196;49.194;12.526;2023-08-21T01:14:45;14.33;;;9.17;;
18140;SDS011;9196;49.194;12.526;2023-08-21T01:17:16;10.43;;;9.50;;
18140;SDS011;9196;49.194;12.526;2023-08-21T01:19:47;9.50;;;8.50;;
18140;SDS011;9196;49.194;12.526;2023-08-21T01:22:15;8.93;;;8.20;;
18140;SDS011;9196;49.194;12.526;2023-08-21T01:24:43;10.47;;;9.37;;
18140;SDS011;9196;49.194;12.526;2023-08-21T01:27:10;10.70;;;9.63;;
18140;SDS011;9196;49.194;12.526;2023-08-21T01:29:39;9.87;;;8.97;;
18140;SDS011;9196;49.194;12.526;2023-08-21T01:32:07;10.53;;;8.53;;
18140;SDS011;9196;49.194;12.526;2023-08-21T01:34:39;10.90;;;9.77;;
18140;SDS011;9196;49.194;12.526;2023-08-21T01:37:07;10.10;;;9.10;;
18140;SDS011;9196;49.194;12.526;2023-08-21T01:39:35;9.93;;;8.93;;
18140;SDS011;9196;49.194;12.526;2023-08-21T01:42:03;10.73;;;9.33;;
18140;SDS011;9196;49.194;12.526;2023-08-21T01:44:30;10.90;;;9.80;;
18140;SDS011;9196;49.194;12.526;2023-08-21T01:46:56;14.47;;;9.00;;
18140;SDS011;9196;49.194;12.526;2023-08-21T01:49:23;10.83;;;9.53;;
18140;SDS011;9196;49.194;12.526;2023-08-21T01:51:50;8.27;;;7.47;;
18140;SDS011;9196;49.194;12.526;2023-08-21T01:54:17;12.70;;;9.50;;
18140;SDS011;9196;49.194;12.526;2023-08-21T01:56:44;12.50;;;9.10;;
18140;SDS011;9196;49.194;12.526;2023-08-21T01:59:12;14.33;;;8.90;;
18140;SDS011;9196;49.194;12.526;2023-08-21T02:01:38;10.43;;;9.53;;
18140;SDS011;9196;49.194;12.526;2023-08-21T02:04:05;9.90;;;9.00;;
18140;SDS011;9196;49.194;12.526;2023-08-21T02:06:32;10.60;;;9.70;;
18140;SDS011;9196;49.194;12.526;2023-08-21T02:08:59;10.80;;;9.80;;
18140;SDS011;9196;49.194;12.526;2023-08-21T02:11:26;11.03;;;10.13;;
18140;SDS011;9196;49.194;12.526;2023-08-21T02:13:52;11.13;;;9.63;;
18140;SDS011;9196;49.194;12.526;2023-08-21T02:16:21;10.27;;;9.20;;
18140;SDS011;9196;49.194;12.526;2023-08-21T02:18:47;11.17;;;10.17;;
18140;SDS011;9196;49.194;12.526;2023-08-21T02:21:14;10.57;;;9.47;;
18140;SDS011;9196;49.194;12.526;2023-08-21T02:23:41;12.30;;;10.60;;
18140;SDS011;9196;49.194;12.526;2023-08-21T02:26:08;14.60;;;12.70;;
18140;SDS011;9196;49.194;12.526;2023-08-21T02:28:35;12.13;;;9.80;;
18140;SDS011;9196;49.194;12.526;2023-08-21T02:31:02;13.83;;;11.00;;
18140;SDS011;9196;49.194;12.526;2023-08-21T02:33:31;10.80;;;9.80;;
18140;SDS011;9196;49.194;12.526;2023-08-21T02:35:58;13.97;;;11.90;;
18140;SDS011;9196;49.194;12.526;2023-08-21T02:38:26;14.00;;;11.47;;
18140;SDS011;9196;49.194;12.526;2023-08-21T02:40:52;11.07;;;10.07;;
18140;SDS011;9196;49.194;12.526;2023-08-21T02:43:19;11.37;;;10.27;;
18140;SDS011;9196;49.194;12.526;2023-08-21T02:45:46;12.23;;;10.83;;
18140;SDS011;9196;49.194;12.526;2023-08-21T02:48:13;11.83;;;10.37;;
18140;SDS011;9196;49.194;12.526;2023-08-21T02:50:42;13.20;;;11.40;;
18140;SDS011;9196;49.194;12.526;2023-08-21T02:53:08;11.67;;;10.43;;
18140;SDS011;9196;49.194;12.526;2023-08-21T02:55:35;11.43;;;10.27;;
18140;SDS011;9196;49.194;12.526;2023-08-21T02:58:02;12.97;;;11.57;;
18140;SDS011;9196;49.194;12.526;2023-08-21T03:00:29;11.87;;;10.67;;
18140;SDS011;9196;49.194;12.526;2023-08-21T03:02:56;13.70;;;10.73;;
18140;SDS011;9196;49.194;12.526;2023-08-21T03:05:23;10.63;;;9.63;;
18140;SDS011;9196;49.194;12.526;2023-08-21T03:07:51;10.80;;;9.70;;
18140;SDS011;9196;49.194;12.526;2023-08-21T03:10:18;12.07;;;10.80;;
18140;SDS011;9196;49.194;12.526;2023-08-21T03:12:45;13.13;;;9.50;;
18140;SDS011;9196;49.194;12.526;2023-08-21T03:15:12;11.10;;;10.00;;
18140;SDS011;9196;49.194;12.526;2023-08-21T03:17:39;12.10;;;11.00;;
18140;SDS011;9196;49.194;12.526;2023-08-21T03:20:06;12.30;;;10.87;;
18140;SDS011;9196;49.194;12.526;2023-08-21T03:22:33;12.20;;;11.00;;
18140;SDS011;9196;49.194;12.526;2023-08-21T03:25:02;12.07;;;10.80;;
18140;SDS011;9196;49.194;12.526;2023-08-21T03:27:29;11.60;;;10.50;;
18140;SDS011;9196;49.194;12.526;2023-08-21T03:29:56;15.50;;;9.97;;
18140;SDS011;9196;49.194;12.526;2023-08-21T03:32:26;12.93;;;11.13;;
18140;SDS011;9196;49.194;12.526;2023-08-21T03:34:52;13.20;;;10.90;;
18140;SDS011;9196;49.194;12.526;2023-08-21T03:37:19;10.20;;;9.30;;
18140;SDS011;9196;49.194;12.526;2023-08-21T03:39:46;11.13;;;10.13;;
18140;SDS011;9196;49.194;12.526;2023-08-21T03:42:14;14.20;;;11.00;;
18140;SDS011;9196;49.194;12.526;2023-08-21T03:44:41;11.70;;;10.50;;
18140;SDS011;9196;49.194;12.526;2023-08-21T03:47:08;16.33;;;10.53;;
18140;SDS011;9196;49.194;12.526;2023-08-21T03:49:36;11.33;;;10.37;;
18140;SDS011;9196;49.194;12.526;2023-08-21T03:52:03;13.70;;;11.77;;
18140;SDS011;9196;49.194;12.526;2023-08-21T03:54:30;13.73;;;11.00;;
18140;SDS011;9196;49.194;12.526;2023-08-21T03:56:57;17.90;;;12.57;;
18140;SDS011;9196;49.194;12.526;2023-08-21T03:59:25;12.47;;;11.27;;
18140;SDS011;9196;49.194;12.526;2023-08-21T04:01:54;11.60;;;10.17;;
18140;SDS011;9196;49.194;12.526;2023-08-21T04:04:21;12.13;;;10.90;;
18140;SDS011;9196;49.194;12.526;2023-08-21T04:06:48;11.80;;;10.40;;
18140;SDS011;9196;49.194;12.526;2023-08-21T04:09:15;14.30;;;12.30;;
18140;SDS011;9196;49.194;12.526;2023-08-21T04:11:41;12.30;;;10.30;;
18140;SDS011;9196;49.194;12.526;2023-08-21T04:14:08;12.00;;;10.90;;
18140;SDS011;9196;49.194;12.526;2023-08-21T04:16:37;11.87;;;10.67;;
18140;SDS011;9196;49.194;12.526;2023-08-21T04:19:04;12.10;;;10.73;;
18140;SDS011;9196;49.194;12.526;2023-08-21T04:21:31;12.30;;;10.30;;
18140;SDS011;9196;49.194;12.526;2023-08-21T04:23:58;11.73;;;10.53;;
18140;SDS011;9196;49.194;12.526;2023-08-21T04:26:25;11.57;;;10.37;;
18140;SDS011;9196;49.194;12.526;2023-08-21T04:28:52;12.77;;;11.00;;
18140;SDS011;9196;49.194;12.526;2023-08-21T04:31:19;14.13;;;11.87;;
18140;SDS011;9196;49.194;12.526;2023-08-21T04:33:47;12.10;;;10.93;;
18140;SDS011;9196;49.194;12.526;2023-08-21T04:36:14;13.50;;;12.07;;
18140;SDS011;9196;49.194;12.526;2023-08-21T04:38:41;12.23;;;11.10;;
18140;SDS011;9196;49.194;12.526;2023-08-21T04:41:08;12.17;;;10.60;;
18140;SDS011;9196;49.194;12.526;2023-08-21T04:43:35;10.30;;;9.30;;
18140;SDS011;9196;49.194;12.526;2023-08-21T04:46:03;10.80;;;9.80;;
18140;SDS011;9196;49.194;12.526;2023-08-21T04:48:30;12.27;;;11.00;;
18140;SDS011;9196;49.194;12.526;2023-08-21T04:50:58;12.17;;;10.97;;
18140;SDS011;9196;49.194;12.526;2023-08-21T04:53:25;20.03;;;10.00;;
18140;SDS011;9196;49.194;12.526;2023-08-21T04:55:52;11.77;;;10.70;;
18140;SDS011;9196;49.194;12.526;2023-08-21T04:58:19;11.57;;;10.57;;
18140;SDS011;9196;49.194;12.526;2023-08-21T05:00:46;15.97;;;11.17;;
18140;SDS011;9196;49.194;12.526;2023-08-21T05:03:12;14.53;;;10.80;;
18140;SDS011;9196;49.194;12.526;2023-08-21T05:05:39;11.83;;;10.50;;
18140;SDS011;9196;49.194;12.526;2023-08-21T05:08:07;11.80;;;10.70;;
18140;SDS011;9196;49.194;12.526;2023-08-21T05:10:34;11.50;;;10.50;;
18140;SDS011;9196;49.194;12.526;2023-08-21T05:13:01;11.37;;;10.37;;
18140;SDS011;9196;49.194;12.526;2023-08-21T05:15:30;17.67;;;11.40;;
18140;SDS011;9196;49.194;12.526;2023-08-21T05:17:57;12.50;;;11.20;;
18140;SDS011;9196;49.194;12.526;2023-08-21T05:20:24;11.63;;;10.27;;
18140;SDS011;9196;49.194;12.526;2023-08-21T05:22:51;11.93;;;10.70;;
18140;SDS011;9196;49.194;12.526;2023-08-21T05:25:19;11.70;;;10.60;;
18140;SDS011;9196;49.194;12.526;2023-08-21T05:27:46;12.60;;;11.00;;
18140;SDS011;9196;49.194;12.526;2023-08-21T05:30:12;20.10;;;11.23;;
18140;SDS011;9196;49.194;12.526;2023-08-21T05:32:40;10.30;;;9.43;;
18140;SDS011;9196;49.194;12.526;2023-08-21T05:35:07;11.93;;;10.83;;
18140;SDS011;9196;49.194;12.526;2023-08-21T05:37:34;12.50;;;11.30;;
18140;SDS011;9196;49.194;12.526;2023-08-21T05:40:01;17.30;;;10.90;;
18140;SDS011;9196;49.194;12.526;2023-08-21T05:42:30;15.83;;;10.63;;
18140;SDS011;9196;49.194;12.526;2023-08-21T05:44:56;14.10;;;11.30;;
18140;SDS011;9196;49.194;12.526;2023-08-21T05:47:23;13.10;;;10.57;;
18140;SDS011;9196;49.194;12.526;2023-08-21T05:49:51;10.47;;;9.47;;
18140;SDS011;9196;49.194;12.526;2023-08-21T05:52:19;12.40;;;11.20;;
18140;SDS011;9196;49.194;12.526;2023-08-21T05:54:47;11.60;;;10.30;;
18140;SDS011;9196;49.194;12.526;2023-08-21T05:57:14;10.87;;;9.97;;
18140;SDS011;9196;49.194;12.526;2023-08-21T05:59:44;12.20;;;11.00;;
18140;SDS011;9196;49.194;12.526;2023-08-21T06:02:11;13.90;;;10.40;;
18140;SDS011;9196;49.194;12.526;2023-08-21T06:04:39;12.47;;;10.93;;
18140;SDS011;9196;49.194;12.526;2023-08-21T06:07:08;13.13;;;11.93;;
18140;SDS011;9196;49.194;12.526;2023-08-21T06:09:35;13.43;;;10.87;;
18140;SDS011;9196;49.194;12.526;2023-08-21T06:12:02;11.57;;;10.27;;
18140;SDS011;9196;49.194;12.526;2023-08-21T06:14:29;12.30;;;10.27;;
18140;SDS011;9196;49.194;12.526;2023-08-21T06:16:59;11.97;;;10.87;;
18140;SDS011;9196;49.194;12.526;2023-08-21T06:19:26;11.73;;;10.57;;
18140;SDS011;9196;49.194;12.526;2023-08-21T06:21:53;19.83;;;10.70;;
18140;SDS011;9196;49.194;12.526;2023-08-21T06:24:20;12.73;;;11.47;;
18140;SDS011;9196;49.194;12.526;2023-08-21T06:26:47;11.03;;;10.00;;
18140;SDS011;9196;49.194;12.526;2023-08-21T06:29:14;18.03;;;11.37;;
18140;SDS011;9196;49.194;12.526;2023-08-21T06:31:41;12.97;;;11.40;;
18140;SDS011;9196;49.194;12.526;2023-08-21T06:34:10;12.60;;;11.30;;
18140;SDS011;9196;49.194;12.526;2023-08-21T06:36:36;11.93;;;10.83;;
18140;SDS011;9196;49.194;12.526;2023-08-21T06:39:03;16.13;;;11.33;;
18140;SDS011;9196;49.194;12.526;2023-08-21T06:41:31;11.77;;;10.57;;
18140;SDS011;9196;49.194;12.526;2023-08-21T06:43:57;12.90;;;11.17;;
18140;SDS011;9196;49.194;12.526;2023-08-21T06:46:24;11.97;;;10.87;;
18140;SDS011;9196;49.194;12.526;2023-08-21T06:48:51;15.03;;;11.47;;
18140;SDS011;9196;49.194;12.526;2023-08-21T06:51:19;12.43;;;11.30;;
18140;SDS011;9196;49.194;12.526;2023-08-21T06:53:46;15.63;;;12.30;;
18140;SDS011;9196;49.194;12.526;2023-08-21T06:56:13;11.30;;;10.30;;
18140;SDS011;9196;49.194;12.526;2023-08-21T06:58:41;12.30;;;11.00;;
18140;SDS011;9196;49.194;12.526;2023-08-21T07:01:08;13.23;;;12.03;;
18140;SDS011;9196;49.194;12.526;2023-08-21T07:03:34;12.50;;;11.33;;
18140;SDS011;9196;49.194;12.526;2023-08-21T07:06:01;13.67;;;12.00;;
18140;SDS011;9196;49.194;12.526;2023-08-21T07:08:29;13.67;;;12.30;;
18140;SDS011;9196;49.194;12.526;2023-08-21T07:10:56;14.00;;;12.67;;
18140;SDS011;9196;49.194;12.526;2023-08-21T07:13:23;13.47;;;12.03;;
18140;SDS011;9196;49.194;12.526;2023-08-21T07:15:52;13.10;;;11.90;;
18140;SDS011;9196;49.194;12.526;2023-08-21T07:18:20;13.20;;;11.80;;
18140;SDS011;9196;49.194;12.526;2023-08-21T07:20:47;12.87;;;11.13;;
18140;SDS011;9196;49.194;12.526;2023-08-21T07:23:14;11.70;;;10.60;;
18140;SDS011;9196;49.194;12.526;2023-08-21T07:25:42;12.77;;;11.50;;
18140;SDS011;9196;49.194;12.526;2023-08-21T07:28:09;11.27;;;10.27;;
18140;SDS011;9196;49.194;12.526;2023-08-21T07:30:36;14.47;;;11.77;;
18140;SDS011;9196;49.194;12.526;2023-08-21T07:33:03;12.33;;;11.00;;
18140;SDS011;9196;49.194;12.526;2023-08-21T07:35:31;14.13;;;12.80;;
18140;SDS011;9196;49.194;12.526;2023-08-21T07:37:58;12.87;;;11.47;;
18140;SDS011;9196;49.194;12.526;2023-08-21T07:40:25;12.80;;;11.60;;
18140;SDS011;9196;49.194;12.526;2023-08-21T07:42:53;13.17;;;11.47;;
18140;SDS011;9196;49.194;12.526;2023-08-21T07:45:20;11.87;;;10.77;;
18140;SDS011;9196;49.194;12.526;2023-08-21T07:47:47;20.33;;;12.00;;
18140;SDS011;9196;49.194;12.526;2023-08-21T07:50:14;13.70;;;12.40;;
18140;SDS011;9196;49.194;12.526;2023-08-21T07:52:41;15.10;;;11.60;;
18140;SDS011;9196;49.194;12.526;2023-08-21T07:55:08;12.13;;;10.90;;
18140;SDS011;9196;49.194;12.526;2023-08-21T07:57:35;12.67;;;11.47;;
18140;SDS011;9196;49.194;12.526;2023-08-21T08:00:04;12.37;;;11.07;;
18140;SDS011;9196;49.194;12.526;2023-08-21T08:02:34;12.10;;;11.00;;
18140;SDS011;9196;49.194;12.526;2023-08-21T08:05:01;12.13;;;10.90;;
18140;SDS011;9196;49.194;12.526;2023-08-21T08:07:28;11.20;;;10.10;;
18140;SDS011;9196;49.194;12.526;2023-08-21T08:09:55;23.00;;;11.13;;
18140;SDS011;9196;49.194;12.526;2023-08-21T08:12:21;11.37;;;10.17;;
18140;SDS011;9196;49.194;12.526;2023-08-21T08:14:48;12.60;;;10.10;;
18140;SDS011;9196;49.194;12.526;2023-08-21T08:17:16;11.87;;;10.67;;
18140;SDS011;9196;49.194;12.526;2023-08-21T08:19:43;13.17;;;10.30;;
18140;SDS011;9196;49.194;12.526;2023-08-21T08:22:10;11.07;;;10.07;;
18140;SDS011;9196;49.194;12.526;2023-08-21T08:24:37;30.07;;;10.03;;
18140;SDS011;9196;49.194;12.526;2023-08-21T08:27:04;12.07;;;10.70;;
18140;SDS011;9196;49.194;12.526;2023-08-21T08:29:31;11.03;;;9.97;;
18140;SDS011;9196;49.194;12.526;2023-08-21T08:31:58;11.80;;;10.60;;
18140;SDS011;9196;49.194;12.526;2023-08-21T08:34:26;13.23;;;10.40;;
18140;SDS011;9196;49.194;12.526;2023-08-21T08:36:53;16.70;;;10.27;;
18140;SDS011;9196;49.194;12.526;2023-08-21T08:39:20;11.30;;;10.17;;
18140;SDS011;9196;49.194;12.526;2023-08-21T08:41:48;11.80;;;10.90;;
18140;SDS011;9196;49.194;12.526;2023-08-21T08:44:19;10.83;;;9.83;;
18140;SDS011;9196;49.194;12.526;2023-08-21T08:46:46;11.63;;;10.70;;
18140;SDS011;9196;49.194;12.526;2023-08-21T08:49:15;10.73;;;9.53;;
18140;SDS011;9196;49.194;12.526;2023-08-21T08:51:43;13.57;;;10.10;;
18140;SDS011;9196;49.194;12.526;2023-08-21T08:54:11;11.90;;;10.00;;
18140;SDS011;9196;49.194;12.526;2023-08-21T08:56:38;10.10;;;9.17;;
18140;SDS011;9196;49.194;12.526;2023-08-21T08:59:07;11.80;;;10.80;;
18140;SDS011;9196;49.194;12.526;2023-08-21T09:01:34;13.00;;;9.67;;
18140;SDS011;9196;49.194;12.526;2023-08-21T09:04:02;10.67;;;9.67;;
18140;SDS011;9196;49.194;12.526;2023-08-21T09:06:29;14.03;;;9.73;;
18140;SDS011;9196;49.194;12.526;2023-08-21T09:08:59;9.40;;;8.50;;
18140;SDS011;9196;49.194;12.526;2023-08-21T09:11:26;12.00;;;9.03;;
18140;SDS011;9196;49.194;12.526;2023-08-21T09:13:53;9.60;;;8.70;;
18140;SDS011;9196;49.194;12.526;2023-08-21T09:16:23;9.63;;;8.70;;
18140;SDS011;9196;49.194;12.526;2023-08-21T09:18:51;13.10;;;8.53;;
18140;SDS011;9196;49.194;12.526;2023-08-21T09:21:20;12.50;;;10.57;;
18140;SDS011;9196;49.194;12.526;2023-08-21T09:23:49;9.50;;;8.57;;
18140;SDS011;9196;49.194;12.526;2023-08-21T09:26:24;18.40;;;10.20;;
18140;SDS011;9196;49.194;12.526;2023-08-21T09:28:51;13.63;;;9.57;;
18140;SDS011;9196;49.194;12.526;2023-08-21T09:31:21;14.87;;;11.23;;
18140;SDS011;9196;49.194;12.526;2023-08-21T09:33:54;14.40;;;10.67;;
18140;SDS011;9196;49.194;12.526;2023-08-21T09:36:22;15.53;;;9.53;;
18140;SDS011;9196;49.194;12.526;2023-08-21T09:38:50;9.80;;;8.80;;
18140;SDS011;9196;49.194;12.526;2023-08-21T09:41:18;10.77;;;9.07;;
18140;SDS011;9196;49.194;12.526;2023-08-21T09:43:47;11.40;;;8.67;;
18140;SDS011;9196;49.194;12.526;2023-08-21T09:46:14;11.20;;;10.10;;
18140;SDS011;9196;49.194;12.526;2023-08-21T09:48:42;12.07;;;9.77;;
18140;SDS011;9196;49.194;12.526;2023-08-21T09:51:10;9.37;;;8.50;;
18140;SDS011;9196;49.194;12.526;2023-08-21T09:53:37;19.30;;;11.97;;
18140;SDS011;9196;49.194;12.526;2023-08-21T09:56:05;12.00;;;9.80;;
18140;SDS011;9196;49.194;12.526;2023-08-21T09:58:33;13.33;;;8.67;;
18140;SDS011;9196;49.194;12.526;2023-08-21T10:01:04;8.70;;;8.00;;
18140;SDS011;9196;49.194;12.526;2023-08-21T10:03:37;11.40;;;8.50;;
18140;SDS011;9196;49.194;12.526;2023-08-21T10:06:04;11.03;;;8.77;;
18140;SDS011;9196;49.194;12.526;2023-08-21T10:08:33;8.80;;;8.00;;
18140;SDS011;9196;49.194;12.526;2023-08-21T10:11:04;16.70;;;9.90;;
18140;SDS011;9196;49.194;12.526;2023-08-21T10:13:32;8.90;;;8.10;;
18140;SDS011;9196;49.194;12.526;2023-08-21T10:15:59;8.03;;;7.30;;
18140;SDS011;9196;49.194;12.526;2023-08-21T10:18:30;7.87;;;7.23;;
18140;SDS011;9196;49.194;12.526;2023-08-21T10:21:10;8.37;;;7.63;;
18140;SDS011;9196;49.194;12.526;2023-08-21T10:23:38;9.17;;;8.33;;
18140;SDS011;9196;49.194;12.526;2023-08-21T10:26:06;8.00;;;7.40;;
18140;SDS011;9196;49.194;12.526;2023-08-21T10:28:43;8.53;;;7.73;;
18140;SDS011;9196;49.194;12.526;2023-08-21T10:31:25;10.00;;;7.10;;
18140;SDS011;9196;49.194;12.526;2023-08-21T10:33:54;8.70;;;7.90;;
18140;SDS011;9196;49.194;12.526;2023-08-21T10:36:40;8.07;;;7.27;;
18140;SDS011;9196;49.194;12.526;2023-08-21T10:39:32;8.57;;;7.73;;
18140;SDS011;9196;49.194;12.526;2023-08-21T10:42:03;7.60;;;6.90;;
18140;SDS011;9196;49.194;12.526;2023-08-21T10:44:37;8.73;;;7.40;;
18140;SDS011;9196;49.194;12.526;2023-08-21T10:47:16;8.93;;;7.60;;
18140;SDS011;9196;49.194;12.526;2023-08-21T10:49:47;9.63;;;7.80;;
18140;SDS011;9196;49.194;12.526;2023-08-21T10:52:15;9.23;;;8.40;;
18140;SDS011;9196;49.194;12.526;2023-08-21T10:54:48;9.20;;;8.10;;
18140;SDS011;9196;49.194;12.526;2023-08-21T10:57:16;8.40;;;7.60;;
18140;SDS011;9196;49.194;12.526;2023-08-21T10:59:50;6.70;;;6.20;;
18140;SDS011;9196;49.194;12.526;2023-08-21T11:02:17;7.57;;;6.77;;
18140;SDS011;9196;49.194;12.526;2023-08-21T11:04:44;9.20;;;7.13;;
18140;SDS011;9196;49.194;12.526;2023-08-21T11:07:13;7.20;;;6.60;;
18140;SDS011;9196;49.194;12.526;2023-08-21T11:09:39;9.60;;;6.70;;
18140;SDS011;9196;49.194;12.526;2023-08-21T11:12:07;6.80;;;6.20;;
18140;SDS011;9196;49.194;12.526;2023-08-21T11:14:35;7.03;;;6.30;;
18140;SDS011;9196;49.194;12.526;2023-08-21T11:17:01;7.07;;;6.47;;
18140;SDS011;9196;49.194;12.526;2023-08-21T11:19:30;8.00;;;7.40;;
18140;SDS011;9196;49.194;12.526;2023-08-21T11:21:58;7.23;;;6.60;;
18140;SDS011;9196;49.194;12.526;2023-08-21T11:24:38;7.10;;;6.50;;
18140;SDS011;9196;49.194;12.526;2023-08-21T11:27:08;7.80;;;7.10;;
18140;SDS011;9196;49.194;12.526;2023-08-21T11:29:36;6.70;;;6.17;;
18140;SDS011;9196;49.194;12.526;2023-08-21T11:32:07;7.03;;;6.53;;
18140;SDS011;9196;49.194;12.526;2023-08-21T11:34:35;7.17;;;6.67;;
18140;SDS011;9196;49.194;12.526;2023-08-21T11:37:03;6.83;;;5.97;;
18140;SDS011;9196;49.194;12.526;2023-08-21T11:39:44;7.33;;;6.73;;
18140;SDS011;9196;49.194;12.526;2023-08-21T11:42:15;7.20;;;6.60;;
18140;SDS011;9196;49.194;12.526;2023-08-21T11:44:43;6.80;;;6.17;;
18140;SDS011;9196;49.194;12.526;2023-08-21T11:47:12;8.33;;;5.80;;
18140;SDS011;9196;49.194;12.526;2023-08-21T11:49:40;6.63;;;5.53;;
18140;SDS011;9196;49.194;12.526;2023-08-21T11:52:09;5.73;;;5.30;;
18140;SDS011;9196;49.194;12.526;2023-08-21T11:54:36;6.20;;;5.70;;
18140;SDS011;9196;49.194;12.526;2023-08-21T11:57:06;7.10;;;5.80;;
18140;SDS011;9196;49.194;12.526;2023-08-21T11:59:33;5.70;;;5.20;;
18140;SDS011;9196;49.194;12.526;2023-08-21T12:02:00;5.27;;;4.83;;
18140;SDS011;9196;49.194;12.526;2023-08-21T12:04:33;5.67;;;5.23;;
18140;SDS011;9196;49.194;12.526;2023-08-21T12:07:00;6.03;;;5.20;;
18140;SDS011;9196;49.194;12.526;2023-08-21T12:09:28;10.07;;;4.90;;
18140;SDS011;9196;49.194;12.526;2023-08-21T12:11:55;5.80;;;5.40;;
18140;SDS011;9196;49.194;12.526;2023-08-21T12:14:22;5.97;;;4.20;;
18140;SDS011;9196;49.194;12.526;2023-08-21T12:16:49;5.80;;;5.20;;
18140;SDS011;9196;49.194;12.526;2023-08-21T12:19:16;6.57;;;5.77;;
18140;SDS011;9196;49.194;12.526;2023-08-21T12:21:42;6.50;;;5.90;;
18140;SDS011;9196;49.194;12.526;2023-08-21T12:24:09;6.00;;;5.53;;
18140;SDS011;9196;49.194;12.526;2023-08-21T12:26:38;5.30;;;4.77;;
18140;SDS011;9196;49.194;12.526;2023-08-21T12:29:05;7.73;;;5.63;;
18140;SDS011;9196;49.194;12.526;2023-08-21T12:31:31;5.40;;;5.00;;
18140;SDS011;9196;49.194;12.526;2023-08-21T12:33:58;6.37;;;5.70;;
18140;SDS011;9196;49.194;12.526;2023-08-21T12:36:25;8.13;;;5.90;;
18140;SDS011;9196;49.194;12.526;2023-08-21T12:38:52;7.63;;;6.00;;
18140;SDS011;9196;49.194;12.526;2023-08-21T12:41:19;5.57;;;5.17;;
18140;SDS011;9196;49.194;12.526;2023-08-21T12:43:47;6.07;;;5.47;;
18140;SDS011;9196;49.194;12.526;2023-08-21T12:46:14;4.70;;;4.30;;
18140;SDS011;9196;49.194;12.526;2023-08-21T12:48:40;5.00;;;4.50;;
18140;SDS011;9196;49.194;12.526;2023-08-21T12:51:07;5.53;;;4.80;;
18140;SDS011;9196;49.194;12.526;2023-08-21T12:53:35;4.83;;;4.37;;
18140;SDS011;9196;49.194;12.526;2023-08-21T12:56:01;5.30;;;4.90;;
18140;SDS011;9196;49.194;12.526;2023-08-21T12:58:28;6.10;;;5.50;;
18140;SDS011;9196;49.194;12.526;2023-08-21T13:00:57;5.67;;;5.00;;
18140;SDS011;9196;49.194;12.526;2023-08-21T13:03:24;4.37;;;3.97;;
18140;SDS011;9196;49.194;12.526;2023-08-21T13:05:51;4.53;;;4.13;;
18140;SDS011;9196;49.194;12.526;2023-08-21T13:08:18;5.57;;;4.70;;
18140;SDS011;9196;49.194;12.526;2023-08-21T13:10:44;6.50;;;4.77;;
18140;SDS011;9196;49.194;12.526;2023-08-21T13:13:11;5.10;;;4.27;;
18140;SDS011;9196;49.194;12.526;2023-08-21T13:15:38;7.53;;;4.30;;
18140;SDS011;9196;49.194;12.526;2023-08-21T13:18:06;4.70;;;4.10;;
18140;SDS011;9196;49.194;12.526;2023-08-21T13:20:33;6.37;;;3.90;;
18140;SDS011;9196;49.194;12.526;2023-08-21T13:23:00;5.17;;;4.77;;
18140;SDS011;9196;49.194;12.526;2023-08-21T13:25:27;7.17;;;5.00;;
18140;SDS011;9196;49.194;12.526;2023-08-21T13:27:54;10.93;;;4.87;;
18140;SDS011;9196;49.194;12.526;2023-08-21T13:30:21;9.43;;;4.47;;
18140;SDS011;9196;49.194;12.526;2023-08-21T13:32:48;4.90;;;4.50;;
18140;SDS011;9196;49.194;12.526;2023-08-21T13:35:16;4.87;;;4.40;;
18140;SDS011;9196;49.194;12.526;2023-08-21T13:37:44;4.60;;;4.30;;
18140;SDS011;9196;49.194;12.526;2023-08-21T13:40:11;5.30;;;4.70;;
18140;SDS011;9196;49.194;12.526;2023-08-21T13:42:41;5.13;;;4.73;;
18140;SDS011;9196;49.194;12.526;2023-08-21T13:45:10;5.07;;;4.67;;
18140;SDS011;9196;49.194;12.526;2023-08-21T13:47:38;6.03;;;5.43;;
18140;SDS011;9196;49.194;12.526;2023-08-21T13:50:05;5.10;;;4.67;;
18140;SDS011;9196;49.194;12.526;2023-08-21T13:52:35;5.50;;;5.10;;
18140;SDS011;9196;49.194;12.526;2023-08-21T13:55:03;6.47;;;5.87;;
18140;SDS011;9196;49.194;12.526;2023-08-21T13:57:31;6.80;;;6.30;;
18140;SDS011;9196;49.194;12.526;2023-08-21T13:59:58;9.00;;;6.10;;
18140;SDS011;9196;49.194;12.526;2023-08-21T14:02:25;5.30;;;4.80;;
18140;SDS011;9196;49.194;12.526;2023-08-21T14:04:51;6.17;;;5.07;;
18140;SDS011;9196;49.194;12.526;2023-08-21T14:07:18;7.67;;;5.60;;
18140;SDS011;9196;49.194;12.526;2023-08-21T14:09:46;4.63;;;4.33;;
18140;SDS011;9196;49.194;12.526;2023-08-21T14:12:13;5.00;;;4.60;;
18140;SDS011;9196;49.194;12.526;2023-08-21T14:14:40;5.07;;;4.73;;
18140;SDS011;9196;49.194;12.526;2023-08-21T14:17:07;6.20;;;5.60;;
18140;SDS011;9196;49.194;12.526;2023-08-21T14:19:33;5.90;;;5.40;;
18140;SDS011;9196;49.194;12.526;2023-08-21T14:22:00;7.00;;;6.27;;
18140;SDS011;9196;49.194;12.526;2023-08-21T14:24:28;5.77;;;5.27;;
18140;SDS011;9196;49.194;12.526;2023-08-21T14:26:56;6.03;;;5.63;;
18140;SDS011;9196;49.194;12.526;2023-08-21T14:29:23;6.20;;;5.60;;
18140;SDS011;9196;49.194;12.526;2023-08-21T14:31:50;6.53;;;6.03;;
18140;SDS011;9196;49.194;12.526;2023-08-21T14:34:18;5.90;;;5.50;;
18140;SDS011;9196;49.194;12.526;2023-08-21T14:36:45;15.27;;;6.10;;